createdAt,value
2022-08-20T00:00:46.496Z,37.47
2022-08-20T00:03:21.209Z,37.69
2022-08-20T00:06:01.293Z,37.81
2022-08-20T00:08:32.093Z,38.04
2022-08-20T00:11:05.769Z,37.94
2022-08-20T00:13:42.688Z,37.98
2022-08-20T00:16:14.023Z,38.15
2022-08-20T00:18:45.252Z,38.09
2022-08-20T00:21:21.460Z,38.37
2022-08-20T00:23:56.610Z,38.36
2022-08-20T00:26:29.816Z,38.40
2022-08-20T00:29:00.635Z,38.36
2022-08-20T00:31:34.243Z,38.51
2022-08-20T00:34:05.109Z,38.86
2022-08-20T00:36:38.978Z,38.81
2022-08-20T00:39:13.989Z,38.82
2022-08-20T00:41:44.869Z,38.72
2022-08-20T00:44:16.192Z,38.87
2022-08-20T00:46:48.654Z,39.00
2022-08-20T00:49:22.300Z,38.85
2022-08-20T00:51:54.921Z,38.91
2022-08-20T00:54:29.842Z,39.04
2022-08-20T00:57:08.089Z,38.94
2022-08-20T00:59:40.220Z,39.17
2022-08-20T01:02:12.762Z,39.35
2022-08-20T01:04:47.197Z,39.28
2022-08-20T01:07:20.728Z,39.50
2022-08-20T01:09:58.853Z,39.50
2022-08-20T01:12:31.147Z,39.34
2022-08-20T01:15:04.165Z,39.53
2022-08-20T01:17:37.958Z,39.45
2022-08-20T01:20:15.034Z,39.23
2022-08-20T01:23:09.004Z,39.60
2022-08-20T01:25:43.885Z,39.62
2022-08-20T01:28:15.236Z,39.67
2022-08-20T01:30:49.882Z,39.59
2022-08-20T01:33:20.848Z,39.71
2022-08-20T01:35:55.586Z,39.78
2022-08-20T01:38:26.391Z,39.68
2022-08-20T01:41:06.028Z,39.91
2022-08-20T01:43:40.534Z,39.94
2022-08-20T01:46:13.851Z,40.07
2022-08-20T01:48:49.337Z,40.02
2022-08-20T01:51:26.013Z,40.23
2022-08-20T01:53:59.404Z,40.08
2022-08-20T01:56:36.563Z,40.19
2022-08-20T01:59:08.162Z,39.97
2022-08-20T02:01:46.134Z,40.12
2022-08-20T02:04:19.015Z,40.12
2022-08-20T02:06:56.306Z,40.40
2022-08-20T02:09:29.473Z,40.35
2022-08-20T02:12:00.488Z,40.46
2022-08-20T02:14:37.180Z,40.66
2022-08-20T02:17:11.028Z,40.64
2022-08-20T02:19:42.124Z,40.74
2022-08-20T02:22:18.684Z,40.69
2022-08-20T02:24:58.662Z,41.02
2022-08-20T02:27:30.544Z,40.90
2022-08-20T02:30:01.255Z,40.94
2022-08-20T02:32:34.383Z,40.91
2022-08-20T02:35:06.125Z,40.86
2022-08-20T02:37:37.006Z,40.78
2022-08-20T02:40:10.590Z,40.66
2022-08-20T02:42:43.602Z,40.67
2022-08-20T02:45:19.303Z,40.71
2022-08-20T02:47:51.209Z,40.88
2022-08-20T02:50:24.054Z,40.93
2022-08-20T02:52:55.573Z,40.93
2022-08-20T02:55:27.598Z,40.97
2022-08-20T02:58:00.253Z,41.09
2022-08-20T03:00:38.462Z,40.98
2022-08-20T03:03:12.692Z,41.00
2022-08-20T03:05:46.812Z,41.20
2022-08-20T03:08:17.839Z,41.29
2022-08-20T03:10:51.140Z,41.29
2022-08-20T03:13:24.050Z,41.47
2022-08-20T03:15:58.663Z,41.45
2022-08-20T03:18:30.987Z,41.67
2022-08-20T03:21:03.975Z,41.71
2022-08-20T03:23:36.639Z,41.70
2022-08-20T03:26:17.460Z,41.89
2022-08-20T03:28:50.235Z,41.90
2022-08-20T03:31:24.473Z,42.12
2022-08-20T03:33:58.107Z,42.00
2022-08-20T03:36:30.752Z,42.14
2022-08-20T03:39:03.320Z,42.28
2022-08-20T03:41:35.774Z,42.31
2022-08-20T03:44:07.343Z,42.38
2022-08-20T03:46:39.133Z,42.55
2022-08-20T03:49:13.932Z,42.46
2022-08-20T03:51:57.417Z,42.63
2022-08-20T03:54:31.944Z,42.46
2022-08-20T03:57:03.833Z,42.32
2022-08-20T03:59:44.724Z,42.41
2022-08-20T04:02:15.496Z,42.59
2022-08-20T04:04:46.214Z,42.60
2022-08-20T04:07:19.081Z,42.55
2022-08-20T04:09:52.371Z,42.58
2022-08-20T04:12:31.275Z,42.54
2022-08-20T04:15:03.553Z,42.56
2022-08-20T04:17:34.703Z,42.63
2022-08-20T04:20:15.091Z,42.71
2022-08-20T04:22:58.959Z,42.83
2022-08-20T04:25:35.837Z,42.86
2022-08-20T04:28:19.621Z,42.96
2022-08-20T04:30:54.785Z,43.05
2022-08-20T04:33:33.955Z,43.10
2022-08-20T04:36:07.126Z,43.14
2022-08-20T04:38:49.783Z,43.16
2022-08-20T04:41:28.073Z,43.31
2022-08-20T04:44:05.901Z,43.51
2022-08-20T04:46:43.827Z,43.48
2022-08-20T04:49:14.677Z,43.43
2022-08-20T04:51:46.911Z,43.50
2022-08-20T04:54:28.257Z,43.44
2022-08-20T04:57:03.596Z,43.52
2022-08-20T04:59:35.907Z,43.68
2022-08-20T05:02:13.428Z,43.58
2022-08-20T05:04:47.778Z,43.49
2022-08-20T05:07:26.593Z,43.56
2022-08-20T05:10:00.973Z,43.75
2022-08-20T05:12:31.724Z,43.41
2022-08-20T05:15:02.534Z,43.14
2022-08-20T05:17:36.462Z,42.94
2022-08-20T05:20:08.653Z,42.94
2022-08-20T05:22:39.361Z,42.90
2022-08-20T05:25:10.812Z,42.88
2022-08-20T05:27:47.291Z,42.85
2022-08-20T05:30:21.682Z,43.01
2022-08-20T05:32:53.337Z,42.92
2022-08-20T05:35:24.083Z,42.87
2022-08-20T05:38:05.158Z,42.72
2022-08-20T05:40:36.060Z,42.97
2022-08-20T05:43:06.943Z,42.84
2022-08-20T05:45:39.188Z,42.91
2022-08-20T05:48:13.826Z,42.88
2022-08-20T05:50:49.373Z,42.97
2022-08-20T05:53:20.336Z,42.97
2022-08-20T05:55:55.137Z,42.80
2022-08-20T05:58:26.382Z,42.83
2022-08-20T06:00:57.476Z,42.76
2022-08-20T06:03:46.020Z,42.69
2022-08-20T06:06:18.059Z,42.75
2022-08-20T06:09:28.091Z,42.72
2022-08-20T06:12:12.081Z,42.84
2022-08-20T06:14:42.820Z,42.57
2022-08-20T06:17:15.311Z,42.56
2022-08-20T06:19:47.798Z,42.30
2022-08-20T06:22:22.972Z,42.33
2022-08-20T06:24:58.077Z,42.50
2022-08-20T06:27:31.503Z,42.20
2022-08-20T06:30:02.206Z,42.46
2022-08-20T06:32:33.850Z,42.65
2022-08-20T06:35:06.290Z,42.56
2022-08-20T06:37:38.654Z,42.51
2022-08-20T06:40:11.022Z,42.32
2022-08-20T06:42:49.091Z,41.95
2022-08-20T06:45:20.655Z,41.86
2022-08-20T06:47:55.828Z,42.19
2022-08-20T06:50:27.986Z,42.11
2022-08-20T06:52:58.767Z,42.08
2022-08-20T06:55:33.301Z,41.87
2022-08-20T06:58:05.413Z,41.57
2022-08-20T07:00:37.046Z,41.37
2022-08-20T07:03:09.743Z,41.22
2022-08-20T07:05:42.479Z,41.32
2022-08-20T07:08:14.489Z,41.02
2022-08-20T07:10:45.361Z,41.03
2022-08-20T07:13:16.659Z,40.93
2022-08-20T07:15:47.371Z,40.70
2022-08-20T07:18:28.727Z,40.50
2022-08-20T07:21:00.581Z,40.41
2022-08-20T07:23:31.848Z,40.05
2022-08-20T07:26:03.524Z,39.93
2022-08-20T07:28:34.557Z,39.82
2022-08-20T07:31:22.721Z,39.71
2022-08-20T07:33:53.677Z,39.56
2022-08-20T07:36:27.450Z,39.35
2022-08-20T07:38:58.211Z,39.23
2022-08-20T07:41:29.115Z,39.17
2022-08-20T07:44:04.743Z,38.98
2022-08-20T07:46:41.585Z,38.85
2022-08-20T07:49:13.542Z,38.81
2022-08-20T07:51:47.179Z,38.81
2022-08-20T07:54:18.195Z,38.58
2022-08-20T07:56:49.740Z,38.48
2022-08-20T07:59:23.474Z,37.98
2022-08-20T08:01:54.448Z,38.32
2022-08-20T08:04:25.855Z,38.03
2022-08-20T08:07:00.280Z,37.80
2022-08-20T08:09:32.850Z,37.61
2022-08-20T08:12:04.942Z,37.60
2022-08-20T08:14:35.959Z,37.59
2022-08-20T08:17:13.842Z,37.56
2022-08-20T08:19:45.148Z,37.46
2022-08-20T08:22:19.672Z,37.15
2022-08-20T08:24:56.635Z,37.14
2022-08-20T08:27:32.708Z,36.83
2022-08-20T08:30:08.510Z,36.97
2022-08-20T08:32:59.321Z,36.81
2022-08-20T08:35:35.217Z,36.72
2022-08-20T08:38:05.985Z,36.53
2022-08-20T08:40:37.273Z,36.41
2022-08-20T08:43:11.488Z,36.07
2022-08-20T08:45:45.996Z,36.00
2022-08-20T08:48:18.697Z,35.97
2022-08-20T08:50:53.292Z,35.97
2022-08-20T08:53:26.102Z,35.74
2022-08-20T08:55:57.169Z,35.66
2022-08-20T08:58:31.919Z,35.33
2022-08-20T09:01:08.153Z,35.22
2022-08-20T09:03:46.215Z,35.07
2022-08-20T09:06:20.510Z,34.71
2022-08-20T09:08:52.854Z,34.45
2022-08-20T09:11:24.453Z,34.28
2022-08-20T09:13:57.710Z,34.19
2022-08-20T09:16:30.064Z,34.03
2022-08-20T09:19:21.374Z,33.77
2022-08-20T09:21:54.954Z,33.58
2022-08-20T09:24:26.081Z,33.43
2022-08-20T09:26:59.493Z,33.21
2022-08-20T09:29:33.697Z,33.05
2022-08-20T09:32:09.272Z,32.99
2022-08-20T09:34:41.106Z,32.87
2022-08-20T09:37:16.831Z,32.80
2022-08-20T09:39:47.897Z,32.75
2022-08-20T09:42:21.244Z,32.60
2022-08-20T09:44:52.243Z,32.49
2022-08-20T09:47:24.034Z,32.00
2022-08-20T09:49:55.988Z,31.77
2022-08-20T09:52:27.563Z,31.76
2022-08-20T09:55:04.725Z,31.36
2022-08-20T09:57:38.504Z,31.01
2022-08-20T10:00:14.673Z,30.91
2022-08-20T10:02:45.630Z,30.73
2022-08-20T10:05:21.849Z,30.45
2022-08-20T10:07:53.651Z,30.03
2022-08-20T10:10:34.981Z,29.53
2022-08-20T10:13:06.788Z,29.45
2022-08-20T10:15:39.188Z,29.51
2022-08-20T10:18:12.757Z,29.27
2022-08-20T10:20:43.666Z,29.13
2022-08-20T10:23:14.603Z,29.06
2022-08-20T10:25:45.414Z,28.48
2022-08-20T10:28:16.232Z,28.14
2022-08-20T10:30:47.249Z,27.85
2022-08-20T10:33:17.995Z,27.38
2022-08-20T10:35:48.814Z,27.23
2022-08-20T10:38:21.411Z,27.35
2022-08-20T10:40:52.671Z,27.09
2022-08-20T10:43:23.525Z,27.08
2022-08-20T10:45:54.353Z,26.83
2022-08-20T10:48:25.274Z,26.64
2022-08-20T10:50:56.140Z,26.38
2022-08-20T10:53:29.508Z,25.91
2022-08-20T10:56:00.641Z,25.93
2022-08-20T10:58:37.605Z,25.63
2022-08-20T11:01:10.652Z,25.38
2022-08-20T11:03:41.565Z,25.17
2022-08-20T11:06:13.696Z,25.07
2022-08-20T11:08:46.408Z,24.91
2022-08-20T11:11:17.302Z,24.95
2022-08-20T11:13:48.151Z,24.67
2022-08-20T11:16:18.840Z,24.40
2022-08-20T11:18:49.642Z,24.28
2022-08-20T11:21:20.658Z,24.14
2022-08-20T11:23:51.420Z,23.49
2022-08-20T11:26:22.798Z,23.57
2022-08-20T11:28:54.274Z,23.50
2022-08-20T11:31:24.998Z,23.70
2022-08-20T11:34:00.223Z,23.62
2022-08-20T11:36:31.604Z,23.75
2022-08-20T11:39:02.389Z,23.62
2022-08-20T11:41:33.060Z,23.70
2022-08-20T11:44:21.001Z,23.74
2022-08-20T11:46:52.504Z,23.84
2022-08-20T11:49:23.105Z,23.45
2022-08-20T11:51:54.434Z,23.25
2022-08-20T11:54:25.616Z,23.21
2022-08-20T11:56:58.211Z,23.17
2022-08-20T11:59:29.164Z,23.07
2022-08-20T12:02:02.804Z,23.08
2022-08-20T12:04:35.120Z,22.84
2022-08-20T12:07:13.492Z,22.63
2022-08-20T12:09:50.602Z,22.50
2022-08-20T12:12:24.188Z,22.37
2022-08-20T12:14:55.569Z,22.22
2022-08-20T12:17:27.865Z,22.06
2022-08-20T12:20:01.489Z,21.94
2022-08-20T12:22:32.234Z,22.14
2022-08-20T12:25:02.965Z,22.14
2022-08-20T12:27:34.456Z,21.83
2022-08-20T12:30:09.663Z,21.60
2022-08-20T12:32:40.896Z,21.46
2022-08-20T12:35:12.186Z,21.32
2022-08-20T12:37:45.071Z,21.68
2022-08-20T12:40:29.494Z,21.29
2022-08-20T12:43:03.637Z,21.17
2022-08-20T12:45:34.708Z,20.93
2022-08-20T12:48:06.658Z,20.76
2022-08-20T12:50:37.804Z,20.66
2022-08-20T12:53:09.811Z,20.65
2022-08-20T12:55:40.583Z,20.47
2022-08-20T12:58:11.661Z,20.46
2022-08-20T13:00:48.536Z,20.39
2022-08-20T13:03:21.957Z,20.29
2022-08-20T13:05:52.743Z,20.46
2022-08-20T13:08:23.488Z,20.13
2022-08-20T13:10:54.235Z,20.02
2022-08-20T13:13:25.025Z,20.19
2022-08-20T13:16:01.178Z,20.32
2022-08-20T13:18:40.484Z,19.85
2022-08-20T13:21:11.314Z,19.56
2022-08-20T13:23:43.896Z,19.36
2022-08-20T13:26:16.501Z,19.23
2022-08-20T13:28:47.312Z,19.30
2022-08-20T13:31:19.409Z,19.07
2022-08-20T13:33:51.045Z,18.87
2022-08-20T13:36:21.927Z,18.95
2022-08-20T13:38:54.339Z,18.70
2022-08-20T13:41:25.213Z,18.90
2022-08-20T13:43:59.396Z,18.89
2022-08-20T13:46:33.337Z,18.80
2022-08-20T13:49:06.297Z,18.89
2022-08-20T13:51:44.869Z,18.94
2022-08-20T13:54:30.302Z,18.94
2022-08-20T13:57:06.985Z,18.92
2022-08-20T13:59:38.655Z,18.81
2022-08-20T14:02:13.310Z,19.05
2022-08-20T14:04:47.457Z,18.94
2022-08-20T14:07:19.578Z,18.87
2022-08-20T14:10:15.773Z,19.02
2022-08-20T14:12:51.308Z,18.65
2022-08-20T14:15:22.019Z,18.53
2022-08-20T14:17:56.006Z,18.38
2022-08-20T14:20:35.965Z,18.53
2022-08-20T14:23:09.768Z,18.43
2022-08-20T14:25:40.482Z,18.57
2022-08-20T14:28:20.113Z,18.52
2022-08-20T14:30:52.531Z,18.51
2022-08-20T14:33:25.027Z,18.71
2022-08-20T14:36:01.351Z,18.59
2022-08-20T14:38:33.408Z,18.56
2022-08-20T14:41:04.234Z,18.48
2022-08-20T14:43:35.937Z,18.53
2022-08-20T14:46:06.803Z,18.37
2022-08-20T14:48:37.680Z,18.52
2022-08-20T14:51:13.619Z,18.40
2022-08-20T14:53:47.696Z,18.54
2022-08-20T14:56:19.141Z,18.69
2022-08-20T14:58:52.213Z,18.57
2022-08-20T15:01:23.098Z,18.71
2022-08-20T15:03:57.749Z,18.71
2022-08-20T15:06:29.035Z,18.60
2022-08-20T15:09:03.740Z,18.65
2022-08-20T15:11:41.140Z,18.65
2022-08-20T15:14:21.140Z,18.76
2022-08-20T15:16:54.182Z,18.69
2022-08-20T15:19:25.216Z,18.78
2022-08-20T15:21:56.099Z,18.78
2022-08-20T15:24:27.910Z,18.99
2022-08-20T15:26:59.696Z,19.01
2022-08-20T15:29:30.471Z,19.02
2022-08-20T15:32:01.354Z,19.16
2022-08-20T15:34:32.364Z,19.27
2022-08-20T15:37:12.982Z,19.46
2022-08-20T15:39:44.452Z,19.58
2022-08-20T15:42:25.798Z,19.70
2022-08-20T15:44:59.577Z,19.62
2022-08-20T15:47:34.582Z,19.82
2022-08-20T15:50:14.015Z,19.88
2022-08-20T15:52:48.467Z,19.96
2022-08-20T15:55:20.929Z,20.08
2022-08-20T15:57:59.850Z,20.09
2022-08-20T16:00:34.239Z,19.97
2022-08-20T16:03:16.859Z,20.18
2022-08-20T16:05:51.212Z,20.13
2022-08-20T16:08:32.206Z,20.49
2022-08-20T16:11:04.761Z,20.67
2022-08-20T16:13:36.312Z,20.69
2022-08-20T16:16:07.932Z,20.69
2022-08-20T16:18:41.836Z,20.66
2022-08-20T16:21:13.533Z,20.97
2022-08-20T16:23:44.480Z,20.95
2022-08-20T16:26:21.027Z,21.13
2022-08-20T16:28:56.137Z,21.30
2022-08-20T16:31:30.515Z,21.32
2022-08-20T16:34:32.875Z,21.37
2022-08-20T16:37:04.512Z,21.55
2022-08-20T16:39:38.890Z,21.62
2022-08-20T16:42:11.957Z,21.72
2022-08-20T16:44:44.037Z,21.77
2022-08-20T16:47:17.622Z,21.87
2022-08-20T16:49:50.545Z,21.94
2022-08-20T16:52:28.349Z,21.96
2022-08-20T16:55:02.127Z,22.20
2022-08-20T16:57:35.250Z,22.26
2022-08-20T17:00:16.921Z,22.40
2022-08-20T17:02:58.037Z,22.39
2022-08-20T17:05:37.933Z,22.43
2022-08-20T17:08:12.545Z,22.48
2022-08-20T17:10:55.356Z,22.53
2022-08-20T17:13:29.925Z,22.66
2022-08-20T17:16:05.116Z,22.67
2022-08-20T17:18:47.069Z,22.79
2022-08-20T17:21:25.084Z,22.89
2022-08-20T17:23:56.816Z,22.92
2022-08-20T17:26:35.613Z,23.11
2022-08-20T17:29:13.616Z,23.32
2022-08-20T17:31:51.943Z,23.27
2022-08-20T17:34:27.518Z,23.40
2022-08-20T17:37:05.572Z,23.39
2022-08-20T17:39:37.595Z,23.64
2022-08-20T17:42:11.473Z,23.63
2022-08-20T17:44:55.138Z,23.77
2022-08-20T17:47:33.715Z,24.03
2022-08-20T17:50:06.972Z,23.87
2022-08-20T17:52:38.340Z,23.91
2022-08-20T17:55:17.883Z,23.94
2022-08-20T17:57:49.755Z,24.03
2022-08-20T18:00:23.809Z,24.09
2022-08-20T18:02:59.321Z,24.10
2022-08-20T18:05:32.956Z,24.31
2022-08-20T18:08:18.469Z,24.26
2022-08-20T18:10:53.832Z,24.32
2022-08-20T18:13:28.823Z,24.38
2022-08-20T18:16:03.024Z,24.63
2022-08-20T18:18:52.951Z,24.56
2022-08-20T18:21:43.418Z,24.69
2022-08-20T18:24:14.719Z,24.64
2022-08-20T18:26:49.416Z,24.88
2022-08-20T18:29:21.857Z,24.84
2022-08-20T18:31:59.284Z,24.90
2022-08-20T18:34:38.048Z,25.11
2022-08-20T18:37:10.540Z,25.12
2022-08-20T18:39:43.452Z,25.55
2022-08-20T18:42:25.268Z,25.39
2022-08-20T18:44:57.062Z,25.70
2022-08-20T18:47:32.775Z,25.98
2022-08-20T18:50:16.184Z,25.99
2022-08-20T18:52:50.289Z,26.16
2022-08-20T18:55:31.064Z,26.18
2022-08-20T18:58:04.924Z,26.09
2022-08-20T19:00:41.068Z,26.72
2022-08-20T19:03:23.488Z,26.57
2022-08-20T19:06:07.150Z,26.84
2022-08-20T19:08:41.905Z,27.11
2022-08-20T19:11:20.288Z,27.35
2022-08-20T19:14:03.548Z,27.50
2022-08-20T19:16:38.684Z,27.82
2022-08-20T19:19:18.993Z,27.95
2022-08-20T19:21:52.130Z,28.34
2022-08-20T19:24:26.394Z,28.80
2022-08-20T19:27:00.975Z,28.92
2022-08-20T19:29:35.433Z,29.12
2022-08-20T19:32:09.980Z,29.50
2022-08-20T19:34:41.809Z,29.68
2022-08-20T19:37:35.783Z,29.99
2022-08-20T19:40:05.630Z,30.03
2022-08-20T19:42:42.121Z,30.33
2022-08-20T19:45:27.445Z,30.48
2022-08-20T19:48:05.939Z,30.61
2022-08-20T19:50:40.466Z,30.87
2022-08-20T19:53:28.820Z,31.03
2022-08-20T19:56:03.401Z,31.11
2022-08-20T19:58:40.513Z,31.28
2022-08-20T20:01:13.040Z,31.42
2022-08-20T20:03:43.858Z,31.65
2022-08-20T20:06:18.077Z,31.70
2022-08-20T20:08:58.888Z,31.68
2022-08-20T20:11:37.461Z,31.95
2022-08-20T20:14:13.952Z,31.98
2022-08-20T20:16:46.916Z,32.30
2022-08-20T20:19:26.790Z,32.20
2022-08-20T20:22:18.936Z,32.47
2022-08-20T20:25:04.216Z,32.59
2022-08-20T20:27:36.646Z,32.60
2022-08-20T20:30:11.617Z,32.87
2022-08-20T20:32:48.827Z,32.94
2022-08-20T20:35:34.996Z,33.08
2022-08-20T20:38:08.535Z,33.21
2022-08-20T20:40:47.276Z,33.21
2022-08-20T20:43:27.864Z,33.56
2022-08-20T20:46:10.795Z,33.42
2022-08-20T20:48:49.822Z,33.79
2022-08-20T20:51:26.472Z,33.94
2022-08-20T20:54:05.048Z,34.12
2022-08-20T20:56:39.412Z,34.27
2022-08-20T20:59:14.570Z,34.40
2022-08-20T21:01:49.297Z,34.31
2022-08-20T21:04:28.830Z,34.62
2022-08-20T21:07:03.412Z,34.54
2022-08-20T21:09:41.381Z,34.52
2022-08-20T21:12:12.643Z,34.66
2022-08-20T21:14:46.585Z,34.67
2022-08-20T21:17:21.140Z,34.75
2022-08-20T21:20:00.984Z,34.73
2022-08-20T21:22:31.921Z,35.02
2022-08-20T21:25:02.980Z,34.85
2022-08-20T21:27:39.934Z,35.34
2022-08-20T21:30:19.041Z,35.15
2022-08-20T21:32:52.707Z,35.39
2022-08-20T21:35:32.557Z,35.38
2022-08-20T21:38:03.409Z,35.60
2022-08-20T21:40:40.539Z,35.64
2022-08-20T21:43:18.775Z,35.51
2022-08-20T21:45:53.611Z,35.77
2022-08-20T21:48:36.397Z,35.82
2022-08-20T21:51:23.409Z,36.14
2022-08-20T21:53:54.401Z,36.01
2022-08-20T21:56:26.264Z,36.41
2022-08-20T21:58:57.265Z,36.23
2022-08-20T22:01:34.289Z,36.15
2022-08-20T22:04:08.834Z,36.68
2022-08-20T22:06:50.586Z,36.74
2022-08-20T22:09:26.682Z,36.76
2022-08-20T22:12:14.261Z,37.03
2022-08-20T22:14:53.232Z,36.92
2022-08-20T22:17:27.773Z,37.11
2022-08-20T22:20:01.314Z,37.16
2022-08-20T22:22:39.925Z,37.19
2022-08-20T22:25:22.580Z,37.27
2022-08-20T22:27:58.628Z,37.30
2022-08-20T22:30:30.203Z,37.15
2022-08-20T22:33:02.439Z,37.53
2022-08-20T22:35:33.249Z,37.51
2022-08-20T22:38:04.104Z,37.64
2022-08-20T22:40:34.993Z,37.50
2022-08-20T22:43:10.637Z,37.65
2022-08-20T22:45:47.132Z,37.69
2022-08-20T22:48:19.637Z,37.68
2022-08-20T22:50:51.437Z,37.96
2022-08-20T22:53:25.515Z,38.01
2022-08-20T22:56:07.031Z,38.02
2022-08-20T22:58:58.455Z,37.99
2022-08-20T23:01:36.543Z,38.09
2022-08-20T23:04:09.160Z,38.09
2022-08-20T23:06:47.772Z,37.93
2022-08-20T23:09:23.771Z,38.26
2022-08-20T23:12:03.809Z,38.32
2022-08-20T23:14:43.969Z,38.09
2022-08-20T23:17:20.827Z,38.34
2022-08-20T23:19:53.651Z,38.45
2022-08-20T23:22:27.952Z,38.57
2022-08-20T23:25:04.201Z,38.59
2022-08-20T23:27:35.073Z,38.63
2022-08-20T23:30:06.402Z,38.63
2022-08-20T23:32:37.306Z,38.65
2022-08-20T23:35:11.133Z,38.45
2022-08-20T23:37:46.155Z,38.52
2022-08-20T23:40:29.788Z,38.65
2022-08-20T23:43:02.303Z,38.90
2022-08-20T23:45:43.917Z,38.88
2022-08-20T23:48:14.828Z,38.83
2022-08-20T23:50:49.641Z,38.88
2022-08-20T23:53:29.773Z,39.00
2022-08-20T23:56:09.885Z,39.03
2022-08-20T23:58:45.749Z,39.28
